الصفحة الرئيسية
METAR-TAF:

METAR-TAF

مطار :

Bar Harbor, مين, الولايات المتحدة

دائرة عرض: 44-27N, خط طول: 068-22W, ارتفاع: 26 متر

مراقبة الطقس الحالي

تاريخ ووقت الإصدار 1ساعة و 1 دقيقة قبل الساعة 06:56UTC
رياح هادئة
درجة الحرارة -1°درجة مئوية
الرطوبة 93%
ضغط 1023 hPa
الرؤية: 16.1 كم
سماء صافية

METAR: KBHB 180656Z AUTO 00000KT 10SM CLR M01/M02 A3021 RMK AO2 SLP233 T10061017 FZRANO

زمن: 03:57 (07:57 UTC)

توقعات

تاريخ ووقت الإصدار 2ساعات و 29 دقيقة قبل الساعة 05:28UTC
التوقعات صالحة من18 الساعة 06 UTC إلى 19 الساعة 06 UTC
ريح عقدة من الشمال
الرؤية: 10 كم
سماء صافية
من 18 الساعة 1400 UTC
ريح 5 عقدة من الشرق
الرؤية: 10 كم
غيوم قليلة على ارتفاع 7000 قدم
من 18 الساعة 2000 UTC
ريح 6 عقدة من الجنوب/الجنوب الشرقي
الرؤية: 10 كم
سماء صافية

TAF: KBHB 180528Z 1806/1906 00000KT P6SM SKC FM181400 08005KT P6SM FEW070 FM182000 16006KT P6SM SKC

أرصاد الطقس والتوقعات من أكثر من 4000 مطار (تقارير الطقس للمطار METAR والتنبؤ بالطقس بالمطارTAF).

المحطات المتاحة هي النقط الصفراء والحمراء على الخريطة.

حرك المؤشر فوق النقطة لمعرفة اسم المحطة.

ثم انقر لمعرفة أرصاد وتوقعات الطقس.

لتغيير الخارطة: اضغط على الأزرار الخضراء مع رمز الصليب الأسود للتكبير. على الزر الأخضر مع شرطة للتصغير، أو على الأسهم الخضراء للخرائط المجاورة.


METAR-TAF: